Time,TemperatureF,DewpointF,PressureIn,WindDirection,WindDirectionDegrees,WindSpeedMPH,WindSpeedGustMPH,Humidity,HourlyPrecipIn,Conditions,Clouds,dailyrainin,SolarRadiationWatts/m^2,SoftwareType,DateUTC
2013-02-22 00:11:00,21.0,19.0,-100.00,SSW,196,5.0,12.0,93,0.00,,,0.00,0.000000,,2013-02-22 09:11:00,
2013-02-22 00:21:00,21.0,19.0,-100.00,SSW,196,5.0,12.0,93,0.00,,,0.00,0.000000,,2013-02-22 09:21:00,
2013-02-22 00:31:00,21.0,19.0,-100.00,SSW,196,5.0,12.0,93,0.00,,,0.00,0.000000,,2013-02-22 09:31:00,
2013-02-22 00:41:00,21.0,19.0,-100.00,SSW,196,5.0,12.0,93,0.00,,,0.00,0.000000,,2013-02-22 09:41:00,
2013-02-22 00:51:00,21.0,19.0,-100.00,SSW,196,5.0,12.0,93,0.00,,,0.00,0.000000,,2013-02-22 09:51:00,
2013-02-22 01:11:00,21.0,19.0,-100.00,SSW,194,6.0,12.0,93,0.00,,,0.00,0.000000,,2013-02-22 10:11:00,
2013-02-22 01:21:00,21.0,19.0,-100.00,SSW,194,6.0,12.0,93,0.00,,,0.00,0.000000,,2013-02-22 10:21:00,
2013-02-22 01:31:00,21.0,19.0,-100.00,SSW,194,6.0,12.0,93,0.00,,,0.00,0.000000,,2013-02-22 10:31:00,
2013-02-22 01:42:00,21.0,19.0,-100.00,SSW,194,6.0,12.0,93,0.00,,,0.00,0.000000,,2013-02-22 10:42:00,
2013-02-22 01:51:00,21.0,19.0,-100.00,SSW,194,6.0,12.0,93,0.00,,,0.00,0.000000,,2013-02-22 10:51:00,
2013-02-22 02:21:00,21.0,18.0,-100.00,SSW,192,3.0,12.0,87,0.00,,,0.00,0.000000,,2013-02-22 11:21:00,
2013-02-22 02:32:00,21.0,18.0,-100.00,SSW,192,3.0,12.0,87,0.00,,,0.00,0.000000,,2013-02-22 11:32:00,
2013-02-22 02:42:00,21.0,18.0,-100.00,SSW,192,3.0,12.0,87,0.00,,,0.00,0.000000,,2013-02-22 11:42:00,
2013-02-22 02:52:00,21.0,18.0,-100.00,SSW,192,3.0,12.0,87,0.00,,,0.00,0.000000,,2013-02-22 11:52:00,
2013-02-22 03:21:00,21.0,18.0,-100.00,SSW,195,4.0,8.0,88,0.00,,,0.00,0.000000,,2013-02-22 12:21:00,
2013-02-22 03:32:00,21.0,18.0,-100.00,SSW,195,4.0,8.0,88,0.00,,,0.00,0.000000,,2013-02-22 12:32:00,
2013-02-22 03:42:00,21.0,18.0,-100.00,SSW,195,4.0,8.0,88,0.00,,,0.00,0.000000,,2013-02-22 12:42:00,
2013-02-22 03:52:00,21.0,18.0,-100.00,SSW,195,4.0,8.0,88,0.00,,,0.00,0.000000,,2013-02-22 12:52:00,
2013-02-22 04:22:00,19.0,16.0,-100.00,SSW,212,4.0,9.0,86,0.00,,,0.00,0.000000,,2013-02-22 13:22:00,
2013-02-22 04:31:00,19.0,16.0,-100.00,SSW,212,4.0,9.0,86,0.00,,,0.00,0.000000,,2013-02-22 13:31:00,
2013-02-22 04:41:00,19.0,16.0,-100.00,SSW,212,4.0,9.0,86,0.00,,,0.00,0.000000,,2013-02-22 13:41:00,
2013-02-22 04:51:00,19.0,16.0,-100.00,SSW,212,4.0,9.0,86,0.00,,,0.00,0.000000,,2013-02-22 13:51:00,
2013-02-22 05:11:00,17.0,14.0,-100.00,SW,214,3.0,9.0,87,0.00,,,0.00,0.000000,,2013-02-22 14:11:00,
2013-02-22 05:21:00,17.0,14.0,-100.00,SW,214,3.0,9.0,87,0.00,,,0.00,0.000000,,2013-02-22 14:21:00,
2013-02-22 05:32:00,17.0,14.0,-100.00,SW,214,3.0,9.0,87,0.00,,,0.00,0.000000,,2013-02-22 14:32:00,
2013-02-22 05:41:00,17.0,14.0,-100.00,SW,214,3.0,9.0,87,0.00,,,0.00,0.000000,,2013-02-22 14:41:00,
2013-02-22 05:52:00,17.0,14.0,-100.00,SW,214,3.0,9.0,87,0.00,,,0.00,0.000000,,2013-02-22 14:52:00,
2013-02-22 06:11:00,17.0,15.0,-100.00,SSW,213,3.0,6.0,90,0.00,,,0.00,0.000000,,2013-02-22 15:11:00,
2013-02-22 06:21:00,17.0,15.0,-100.00,SSW,213,3.0,6.0,90,0.00,,,0.00,0.000000,,2013-02-22 15:21:00,
2013-02-22 06:32:00,17.0,15.0,-100.00,SSW,213,3.0,6.0,90,0.00,,,0.00,0.000000,,2013-02-22 15:32:00,
2013-02-22 06:41:00,17.0,15.0,-100.00,SSW,213,3.0,6.0,90,0.00,,,0.00,0.000000,,2013-02-22 15:41:00,
2013-02-22 06:51:00,17.0,15.0,-100.00,SSW,213,3.0,6.0,90,0.00,,,0.00,0.000000,,2013-02-22 15:51:00,
2013-02-22 07:21:00,19.0,14.0,-100.00,SW,230,5.0,15.0,82,0.00,,,0.00,0.000000,,2013-02-22 16:21:00,
2013-02-22 07:31:00,19.0,14.0,-100.00,SW,230,5.0,15.0,82,0.00,,,0.00,0.000000,,2013-02-22 16:31:00,
2013-02-22 07:41:00,19.0,14.0,-100.00,SW,230,5.0,15.0,82,0.00,,,0.00,0.000000,,2013-02-22 16:41:00,
2013-02-22 07:52:00,19.0,14.0,-100.00,SW,230,5.0,15.0,82,0.00,,,0.00,0.000000,,2013-02-22 16:52:00,
2013-02-22 08:21:00,19.0,13.0,-100.00,SW,229,6.0,16.0,76,0.00,,,0.00,0.000000,,2013-02-22 17:21:00,
2013-02-22 08:31:00,19.0,13.0,-100.00,SW,229,6.0,16.0,76,0.00,,,0.00,0.000000,,2013-02-22 17:31:00,
2013-02-22 08:41:00,19.0,13.0,-100.00,SW,229,6.0,16.0,76,0.00,,,0.00,0.000000,,2013-02-22 17:41:00,
2013-02-22 08:52:00,19.0,13.0,-100.00,SW,229,6.0,16.0,76,0.00,,,0.00,0.000000,,2013-02-22 17:52:00,
2013-02-22 09:22:00,20.0,13.0,-100.00,WSW,242,7.0,15.0,73,0.00,,,0.00,2.000000,,2013-02-22 18:22:00,
2013-02-22 09:32:00,20.0,13.0,-100.00,WSW,242,7.0,15.0,73,0.00,,,0.00,2.000000,,2013-02-22 18:32:00,
2013-02-22 09:42:00,20.0,13.0,-100.00,WSW,242,7.0,15.0,73,0.00,,,0.00,2.000000,,2013-02-22 18:42:00,
2013-02-22 09:51:00,20.0,13.0,-100.00,WSW,242,7.0,15.0,73,0.00,,,0.00,2.000000,,2013-02-22 18:51:00,
2013-02-22 10:11:00,24.0,15.0,-100.00,SW,227,5.0,14.0,68,0.00,,,0.00,26.000000,,2013-02-22 19:11:00,
2013-02-22 10:21:00,24.0,15.0,-100.00,SW,227,5.0,14.0,68,0.00,,,0.00,26.000000,,2013-02-22 19:21:00,
2013-02-22 10:31:00,24.0,15.0,-100.00,SW,227,5.0,14.0,68,0.00,,,0.00,26.000000,,2013-02-22 19:31:00,
2013-02-22 10:41:00,24.0,15.0,-100.00,SW,227,5.0,14.0,68,0.00,,,0.00,26.000000,,2013-02-22 19:41:00,
2013-02-22 10:51:00,24.0,15.0,-100.00,SW,227,5.0,14.0,68,0.00,,,0.00,26.000000,,2013-02-22 19:51:00,
2013-02-22 11:11:00,26.0,13.0,-100.00,SSW,211,6.0,12.0,58,0.00,,,0.00,77.000000,,2013-02-22 20:11:00,
2013-02-22 11:21:00,26.0,13.0,-100.00,SSW,211,6.0,12.0,58,0.00,,,0.00,77.000000,,2013-02-22 20:21:00,
2013-02-22 11:31:00,26.0,13.0,-100.00,SSW,211,6.0,12.0,58,0.00,,,0.00,77.000000,,2013-02-22 20:31:00,
2013-02-22 11:41:00,26.0,13.0,-100.00,SSW,211,6.0,12.0,58,0.00,,,0.00,77.000000,,2013-02-22 20:41:00,
2013-02-22 11:52:00,26.0,13.0,-100.00,SSW,211,6.0,12.0,58,0.00,,,0.00,77.000000,,2013-02-22 20:52:00,
2013-02-22 12:11:00,27.0,13.0,-100.00,SW,223,9.0,17.0,54,0.00,,,0.00,172.000000,,2013-02-22 21:11:00,
2013-02-22 12:21:00,27.0,13.0,-100.00,SW,223,9.0,17.0,54,0.00,,,0.00,172.000000,,2013-02-22 21:21:00,
2013-02-22 12:31:00,27.0,13.0,-100.00,SW,223,9.0,17.0,54,0.00,,,0.00,172.000000,,2013-02-22 21:31:00,
2013-02-22 12:41:00,27.0,13.0,-100.00,SW,223,9.0,17.0,54,0.00,,,0.00,172.000000,,2013-02-22 21:41:00,
2013-02-22 12:51:00,27.0,13.0,-100.00,SW,223,9.0,17.0,54,0.00,,,0.00,172.000000,,2013-02-22 21:51:00,
2013-02-22 13:11:00,27.0,14.0,-100.00,SSW,212,7.0,16.0,58,0.00,,,0.00,315.000000,,2013-02-22 22:11:00,
2013-02-22 13:21:00,27.0,14.0,-100.00,SSW,212,7.0,16.0,58,0.00,,,0.00,315.000000,,2013-02-22 22:21:00,
2013-02-22 13:31:00,27.0,14.0,-100.00,SSW,212,7.0,16.0,58,0.00,,,0.00,315.000000,,2013-02-22 22:31:00,
2013-02-22 13:41:00,27.0,14.0,-100.00,SSW,212,7.0,16.0,58,0.00,,,0.00,315.000000,,2013-02-22 22:41:00,
2013-02-22 13:51:00,27.0,14.0,-100.00,SSW,212,7.0,16.0,58,0.00,,,0.00,315.000000,,2013-02-22 22:51:00,
2013-02-22 14:11:00,26.0,14.0,-100.00,SW,222,7.0,18.0,61,0.00,,,0.00,319.000000,,2013-02-22 23:11:00,
2013-02-22 14:21:00,26.0,14.0,-100.00,SW,222,7.0,18.0,61,0.00,,,0.00,319.000000,,2013-02-22 23:21:00,
2013-02-22 14:31:00,26.0,14.0,-100.00,SW,222,7.0,18.0,61,0.00,,,0.00,319.000000,,2013-02-22 23:31:00,
2013-02-22 14:41:00,26.0,14.0,-100.00,SW,222,7.0,18.0,61,0.00,,,0.00,319.000000,,2013-02-22 23:41:00,
2013-02-22 14:52:00,26.0,14.0,-100.00,SW,222,7.0,18.0,61,0.00,,,0.00,319.000000,,2013-02-22 23:52:00,
2013-02-22 15:21:00,26.0,15.0,-100.00,SW,221,7.0,18.0,62,0.00,,,0.00,239.000000,,2013-02-23 00:21:00,
2013-02-22 15:31:00,26.0,15.0,-100.00,SW,221,7.0,18.0,62,0.00,,,0.00,239.000000,,2013-02-23 00:31:00,
2013-02-22 15:41:00,26.0,15.0,-100.00,SW,221,7.0,18.0,62,0.00,,,0.00,239.000000,,2013-02-23 00:41:00,
2013-02-22 15:51:00,26.0,15.0,-100.00,SW,221,7.0,18.0,62,0.00,,,0.00,239.000000,,2013-02-23 00:51:00,
2013-02-22 16:11:00,27.0,13.0,-100.00,SW,231,7.0,15.0,54,0.00,,,0.00,287.000000,,2013-02-23 01:11:00,
2013-02-22 16:21:00,27.0,13.0,-100.00,SW,231,7.0,15.0,54,0.00,,,0.00,287.000000,,2013-02-23 01:21:00,
2013-02-22 16:31:00,27.0,13.0,-100.00,SW,231,7.0,15.0,54,0.00,,,0.00,287.000000,,2013-02-23 01:31:00,
2013-02-22 16:41:00,27.0,13.0,-100.00,SW,231,7.0,15.0,54,0.00,,,0.00,287.000000,,2013-02-23 01:41:00,
2013-02-22 16:51:00,27.0,13.0,-100.00,SW,231,7.0,15.0,54,0.00,,,0.00,287.000000,,2013-02-23 01:51:00,
2013-02-22 17:11:00,24.0,10.0,-100.00,SW,217,6.0,15.0,55,0.00,,,0.00,147.000000,,2013-02-23 02:11:00,
2013-02-22 17:21:00,24.0,10.0,-100.00,SW,217,6.0,15.0,55,0.00,,,0.00,147.000000,,2013-02-23 02:21:00,
2013-02-22 17:31:00,24.0,10.0,-100.00,SW,217,6.0,15.0,55,0.00,,,0.00,147.000000,,2013-02-23 02:31:00,
2013-02-22 17:41:00,24.0,10.0,-100.00,SW,217,6.0,15.0,55,0.00,,,0.00,147.000000,,2013-02-23 02:41:00,
2013-02-22 17:52:00,24.0,10.0,-100.00,SW,217,6.0,15.0,55,0.00,,,0.00,147.000000,,2013-02-23 02:52:00,
2013-02-22 18:11:00,21.0,10.0,-100.00,SSW,207,1.0,16.0,62,0.00,,,0.00,22.000000,,2013-02-23 03:11:00,
2013-02-22 18:21:00,21.0,10.0,-100.00,SSW,207,1.0,16.0,62,0.00,,,0.00,22.000000,,2013-02-23 03:21:00,
2013-02-22 18:31:00,21.0,10.0,-100.00,SSW,207,1.0,16.0,62,0.00,,,0.00,22.000000,,2013-02-23 03:31:00,
2013-02-22 18:41:00,21.0,10.0,-100.00,SSW,207,1.0,16.0,62,0.00,,,0.00,22.000000,,2013-02-23 03:41:00,
2013-02-22 18:51:00,21.0,10.0,-100.00,SSW,207,1.0,16.0,62,0.00,,,0.00,22.000000,,2013-02-23 03:51:00,
2013-02-22 19:11:00,18.0,11.0,-100.00,WNW,288,2.0,6.0,73,0.00,,,0.00,2.000000,,2013-02-23 04:11:00,
2013-02-22 19:21:00,18.0,11.0,-100.00,WNW,288,2.0,6.0,73,0.00,,,0.00,2.000000,,2013-02-23 04:21:00,
2013-02-22 19:31:00,18.0,11.0,-100.00,WNW,288,2.0,6.0,73,0.00,,,0.00,2.000000,,2013-02-23 04:31:00,
2013-02-22 19:41:00,18.0,11.0,-100.00,WNW,288,2.0,6.0,73,0.00,,,0.00,2.000000,,2013-02-23 04:41:00,
2013-02-22 19:51:00,18.0,11.0,-100.00,WNW,288,2.0,6.0,73,0.00,,,0.00,2.000000,,2013-02-23 04:51:00,
2013-02-22 20:12:00,16.0,11.0,-100.00,WNW,301,2.0,6.0,81,0.00,,,-99.99,0.000000,,2013-02-23 05:12:00,
2013-02-22 20:22:00,16.0,11.0,-100.00,WNW,301,2.0,6.0,81,0.00,,,-99.99,0.000000,,2013-02-23 05:22:00,
2013-02-22 20:32:00,16.0,11.0,-100.00,WNW,301,2.0,6.0,81,0.00,,,-99.99,0.000000,,2013-02-23 05:32:00,
2013-02-22 20:41:00,16.0,11.0,-100.00,WNW,301,2.0,6.0,81,0.00,,,-99.99,0.000000,,2013-02-23 05:41:00,
2013-02-22 20:52:00,16.0,11.0,-100.00,WNW,301,2.0,6.0,81,0.00,,,-99.99,0.000000,,2013-02-23 05:52:00,
2013-02-22 21:11:00,21.0,15.0,-100.00,SSW,205,3.0,7.0,77,0.00,,,0.00,0.000000,,2013-02-23 06:11:00,
2013-02-22 21:22:00,21.0,15.0,-100.00,SSW,205,3.0,7.0,77,0.00,,,0.00,0.000000,,2013-02-23 06:22:00,
2013-02-22 21:31:00,21.0,15.0,-100.00,SSW,205,3.0,7.0,77,0.00,,,0.00,0.000000,,2013-02-23 06:31:00,
2013-02-22 21:41:00,21.0,15.0,-100.00,SSW,205,3.0,7.0,77,0.00,,,0.00,0.000000,,2013-02-23 06:41:00,
2013-02-22 21:51:00,21.0,15.0,-100.00,SSW,205,3.0,7.0,77,0.00,,,0.00,0.000000,,2013-02-23 06:51:00,
2013-02-22 22:21:00,21.0,15.0,-100.00,WSW,249,2.0,4.0,76,0.00,,,0.00,0.000000,,2013-02-23 07:21:00,
2013-02-22 22:31:00,21.0,15.0,-100.00,WSW,249,2.0,4.0,76,0.00,,,0.00,0.000000,,2013-02-23 07:31:00,
2013-02-22 22:41:00,21.0,15.0,-100.00,WSW,249,2.0,4.0,76,0.00,,,0.00,0.000000,,2013-02-23 07:41:00,
2013-02-22 22:51:00,21.0,15.0,-100.00,WSW,249,2.0,4.0,76,0.00,,,0.00,0.000000,,2013-02-23 07:51:00,
2013-02-22 23:11:00,21.0,16.0,-100.00,NNW,337,2.0,4.0,82,0.00,,,0.00,0.000000,,2013-02-23 08:11:00,
2013-02-22 23:21:00,21.0,16.0,-100.00,NNW,337,2.0,4.0,82,0.00,,,0.00,0.000000,,2013-02-23 08:21:00,
2013-02-22 23:31:00,21.0,16.0,-100.00,NNW,337,2.0,4.0,82,0.00,,,0.00,0.000000,,2013-02-23 08:31:00,
2013-02-22 23:41:00,21.0,16.0,-100.00,NNW,337,2.0,4.0,82,0.00,,,0.00,0.000000,,2013-02-23 08:41:00,
2013-02-22 23:52:00,21.0,16.0,-100.00,NNW,337,2.0,4.0,82,0.00,,,0.00,0.000000,,2013-02-23 08:52:00,